Time;durP1;ratioP1;P1;durP2;ratioP2;P2;SDS_P1;SDS_P2;PMS_P1;PMS_P2;Temp;Humidity;BMP_temperature;BMP_pressure;BME280_temperature;BME280_humidity;BME280_pressure;Samples;Min_cycle;Max_cycle;Signal;HPM_P1;HPM_P2
2020/12/06 00:01:05;;;;;;;;;;;;;;;3.05;76.01;98894.00;5056596;28;19925;-68
2020/12/06 00:03:34;;;;;;;;;;;;;;;3.03;76.35;98878.06;5052481;28;19925;-71
2020/12/06 00:06:00;;;;;;;;;;;;;;;3.03;76.66;98847.63;5034492;28;19968;-68
2020/12/06 00:08:27;;;;;;;;;;;;;;;3.04;76.96;98841.22;5055901;28;19929;-68
2020/12/06 00:10:53;;;;;;;;;;;;;;;3.01;76.59;98838.94;5075158;28;20444;-67
2020/12/06 00:13:19;;;;;;;;;;;;;;;3.04;76.83;98833.16;5073325;28;19932;-68
2020/12/06 00:15:45;;;;;;;;;;;;;;;3.06;76.95;98839.16;5056060;28;20386;-67
2020/12/06 00:18:12;;;;;;;;;;;;;;;3.03;77.12;98856.53;5066562;28;20437;-68
2020/12/06 00:20:38;;;;;;;;;;;;;;;3.08;77.09;98864.00;5072073;28;19931;-67
2020/12/06 00:23:04;;;;;;;;;;;;;;;3.13;77.07;98869.59;5059920;28;19970;-68
2020/12/06 00:25:31;;;;;;;;;;;;;;;3.09;77.25;98880.97;5038444;28;19925;-68
2020/12/06 00:27:57;;;;;;;;;;;;;;;3.16;77.08;98879.13;5057553;28;19924;-68
2020/12/06 00:30:23;;;;;;;;;;;;;;;3.05;77.55;98867.09;5057013;28;19936;-68
2020/12/06 00:32:49;;;;;;;;;;;;;;;3.02;77.66;98889.84;5074024;28;20026;-68
2020/12/06 00:35:16;;;;;;;;;;;;;;;3.01;78.44;98871.22;5074117;28;19925;-68
2020/12/06 00:37:42;;;;;;;;;;;;;;;3.00;77.91;98861.47;5055079;28;20360;-68
2020/12/06 00:40:08;;;;;;;;;;;;;;;2.95;78.52;98855.88;5075059;28;19960;-71
2020/12/06 00:42:35;;;;;;;;;;;;;;;2.95;78.10;98848.63;5056353;28;19931;-68
2020/12/06 00:45:05;;;;;;;;;;;;;;;2.88;78.43;98855.84;5070811;28;19935;-70
2020/12/06 00:47:37;;;;;;;;;;;;;;;2.86;78.84;98862.44;5065889;28;19925;-67
2020/12/06 00:50:04;;;;;;;;;;;;;;;2.83;78.91;98869.06;5070010;28;19925;-67
2020/12/06 00:52:32;;;;;;;;;;;;;;;2.79;79.27;98870.47;5023429;28;19925;-68
2020/12/06 00:54:59;;;;;;;;;;;;;;;2.76;79.59;98868.22;5041500;28;20421;-67
2020/12/06 00:57:25;;;;;;;;;;;;;;;2.71;79.68;98845.63;5027804;28;20393;-68
2020/12/06 00:59:51;;;;;;;;;;;;;;;2.71;79.82;98845.63;5070752;28;19950;-67
2020/12/06 01:02:18;;;;;;;;;;;;;;;2.57;80.34;98848.22;5055669;28;19924;-69
2020/12/06 01:04:44;;;;;;;;;;;;;;;2.43;81.01;98868.00;5069991;28;20291;-67
2020/12/06 01:07:11;;;;;;;;;;;;;;;2.41;81.46;98848.56;5070316;28;19955;-68
2020/12/06 01:09:37;;;;;;;;;;;;;;;2.39;81.49;98837.19;5038198;28;19932;-67
2020/12/06 01:12:03;;;;;;;;;;;;;;;2.35;81.96;98827.84;5038161;28;19928;-68
2020/12/06 01:14:30;;;;;;;;;;;;;;;2.35;81.71;98828.69;5071417;28;19928;-68
2020/12/06 01:16:57;;;;;;;;;;;;;;;2.39;81.79;98818.38;5069174;28;19932;-67
2020/12/06 01:19:23;;;;;;;;;;;;;;;2.34;82.01;98821.66;5058130;28;19951;-68
2020/12/06 01:21:53;;;;;;;;;;;;;;;2.33;82.17;98821.84;5055145;28;20330;-69
2020/12/06 01:24:19;;;;;;;;;;;;;;;2.25;82.46;98820.13;5054074;28;19924;-67
2020/12/06 01:26:48;;;;;;;;;;;;;;;2.16;83.05;98832.06;5053799;28;19925;-67
2020/12/06 01:29:15;;;;;;;;;;;;;;;2.14;83.29;98842.16;5073927;28;19950;-68
2020/12/06 01:31:48;;;;;;;;;;;;;;;2.13;83.49;98842.34;5055241;28;19993;-68
2020/12/06 01:34:17;;;;;;;;;;;;;;;2.15;83.94;98843.00;5071611;28;19951;-67
2020/12/06 01:36:43;;;;;;;;;;;;;;;2.20;83.71;98841.38;5050872;28;19925;-68
2020/12/06 01:39:09;;;;;;;;;;;;;;;2.33;82.97;98832.59;5020432;28;19982;-67
2020/12/06 01:41:35;;;;;;;;;;;;;;;2.41;82.50;98816.31;5018462;28;19937;-67
2020/12/06 01:44:03;;;;;;;;;;;;;;;2.53;82.35;98808.50;5054211;28;19924;-67
2020/12/06 01:46:30;;;;;;;;;;;;;;;2.56;82.10;98814.31;5057303;28;19924;-68
2020/12/06 01:48:57;;;;;;;;;;;;;;;2.59;82.24;98803.16;5067683;28;20444;-67
2020/12/06 01:51:23;;;;;;;;;;;;;;;2.62;81.69;98799.25;5055872;28;19952;-67
2020/12/06 01:53:50;;;;;;;;;;;;;;;2.57;81.79;98812.44;5063326;28;19925;-67
2020/12/06 01:56:16;;;;;;;;;;;;;;;2.47;82.25;98826.25;5058426;28;19929;-67
2020/12/06 01:58:43;;;;;;;;;;;;;;;2.37;82.66;98827.66;5063769;28;19972;-67
2020/12/06 02:01:09;;;;;;;;;;;;;;;2.17;83.25;98817.59;5071587;28;20397;-67
2020/12/06 02:03:36;;;;;;;;;;;;;;;2.07;84.01;98827.06;5069699;28;19930;-67
2020/12/06 02:06:03;;;;;;;;;;;;;;;2.01;84.47;98816.06;5069600;28;19932;-68
2020/12/06 02:08:29;;;;;;;;;;;;;;;2.03;84.36;98812.34;5052664;28;19945;-67
2020/12/06 02:10:56;;;;;;;;;;;;;;;2.05;84.01;98816.50;5053045;28;19928;-67
2020/12/06 02:13:22;;;;;;;;;;;;;;;2.10;84.50;98814.03;5036249;28;20320;-67
2020/12/06 02:15:49;;;;;;;;;;;;;;;2.06;84.45;98822.69;5036635;28;19974;-67
2020/12/06 02:18:16;;;;;;;;;;;;;;;1.99;84.59;98828.84;5043624;28;19947;-67
2020/12/06 02:20:42;;;;;;;;;;;;;;;1.89;85.19;98820.28;5064806;28;19983;-67
2020/12/06 02:23:09;;;;;;;;;;;;;;;1.86;85.39;98804.56;5069607;28;20310;-67
2020/12/06 02:25:35;;;;;;;;;;;;;;;1.86;85.22;98803.72;5050442;28;19940;-67
2020/12/06 02:28:03;;;;;;;;;;;;;;;1.86;85.48;98812.63;5069328;28;19924;-67
2020/12/06 02:30:30;;;;;;;;;;;;;;;1.80;85.51;98812.56;5053191;28;20475;-67
2020/12/06 02:32:56;;;;;;;;;;;;;;;1.78;85.18;98812.75;5053276;28;20344;-67
2020/12/06 02:35:22;;;;;;;;;;;;;;;1.63;86.32;98803.97;5053041;28;19928;-67
2020/12/06 02:37:49;;;;;;;;;;;;;;;1.46;86.69;98795.34;5070394;28;19924;-67
2020/12/06 02:40:15;;;;;;;;;;;;;;;1.38;87.10;98797.34;5069268;28;19924;-67
2020/12/06 02:42:41;;;;;;;;;;;;;;;1.37;87.46;98788.47;5052028;28;20471;-67
2020/12/06 02:45:08;;;;;;;;;;;;;;;1.39;87.65;98799.00;5053155;28;19974;-67
2020/12/06 02:47:34;;;;;;;;;;;;;;;1.32;87.47;98807.81;5028418;28;20322;-68
2020/12/06 02:50:00;;;;;;;;;;;;;;;1.37;88.13;98793.00;5050582;28;19928;-67
2020/12/06 02:52:27;;;;;;;;;;;;;;;1.34;87.75;98802.28;5055634;28;19971;-67
2020/12/06 02:54:53;;;;;;;;;;;;;;;1.34;88.25;98805.78;5054645;28;20344;-67
2020/12/06 02:57:19;;;;;;;;;;;;;;;1.36;87.98;98794.03;5061945;28;19932;-67
2020/12/06 02:59:45;;;;;;;;;;;;;;;1.35;87.98;98787.84;5069409;28;19982;-67
2020/12/06 03:02:12;;;;;;;;;;;;;;;1.36;87.44;98773.41;5036217;28;19924;-66
2020/12/06 03:04:38;;;;;;;;;;;;;;;1.42;87.25;98772.59;5052181;28;19925;-67
2020/12/06 03:07:04;;;;;;;;;;;;;;;1.50;87.11;98769.78;5072296;23;19925;-70
2020/12/06 03:09:30;;;;;;;;;;;;;;;1.50;87.01;98759.03;5048711;28;20365;-71
2020/12/06 03:11:57;;;;;;;;;;;;;;;1.46;87.31;98767.66;5036037;28;19925;-70
2020/12/06 03:14:23;;;;;;;;;;;;;;;1.44;87.35;98775.91;5053619;28;19925;-71
2020/12/06 03:16:50;;;;;;;;;;;;;;;1.44;87.16;98765.19;5044479;28;19925;-70
2020/12/06 03:19:16;;;;;;;;;;;;;;;1.43;87.02;98758.16;4996116;28;20347;-70
2020/12/06 03:21:43;;;;;;;;;;;;;;;1.35;87.41;98755.63;5020127;28;19931;-71
2020/12/06 03:24:09;;;;;;;;;;;;;;;1.30;87.47;98752.69;5030005;28;20449;-70
2020/12/06 03:26:35;;;;;;;;;;;;;;;1.29;87.77;98733.06;5011654;28;20359;-70
2020/12/06 03:29:02;;;;;;;;;;;;;;;1.24;88.08;98727.44;5031565;28;19991;-70
2020/12/06 03:31:28;;;;;;;;;;;;;;;1.23;88.00;98723.13;5033939;28;19925;-70
2020/12/06 03:33:54;;;;;;;;;;;;;;;1.22;87.32;98724.13;5004423;28;19928;-71
2020/12/06 03:36:20;;;;;;;;;;;;;;;1.18;87.64;98717.50;4996873;28;19926;-70
2020/12/06 03:38:46;;;;;;;;;;;;;;;1.19;87.38;98719.16;5016144;28;19925;-70
2020/12/06 03:41:13;;;;;;;;;;;;;;;1.12;87.78;98712.88;5033596;28;19933;-71
2020/12/06 03:43:39;;;;;;;;;;;;;;;1.12;87.49;98696.78;5017208;28;19963;-71
2020/12/06 03:46:06;;;;;;;;;;;;;;;1.10;88.09;98687.28;5031624;28;19925;-71
2020/12/06 03:48:32;;;;;;;;;;;;;;;1.11;87.72;98687.09;5033815;28;20207;-70
2020/12/06 03:50:58;;;;;;;;;;;;;;;1.09;87.98;98705.22;5033022;28;20023;-70
2020/12/06 03:53:25;;;;;;;;;;;;;;;1.09;87.74;98707.06;5032507;28;19940;-71
2020/12/06 03:55:51;;;;;;;;;;;;;;;1.07;87.89;98726.03;5033667;28;19926;-71
2020/12/06 03:58:17;;;;;;;;;;;;;;;1.09;87.90;98715.13;5033571;28;19956;-71
2020/12/06 04:00:44;;;;;;;;;;;;;;;1.10;87.91;98706.88;4997549;28;19975;-71
2020/12/06 04:03:10;;;;;;;;;;;;;;;1.12;88.08;98717.44;5014877;28;19926;-71
2020/12/06 04:05:36;;;;;;;;;;;;;;;1.13;87.70;98722.59;5025847;28;20280;-71
2020/12/06 04:08:02;;;;;;;;;;;;;;;1.12;88.19;98722.78;5042869;28;19932;-71
2020/12/06 04:10:29;;;;;;;;;;;;;;;1.12;88.42;98723.63;5015903;28;20019;-71
2020/12/06 04:12:55;;;;;;;;;;;;;;;1.12;87.98;98720.09;5032863;28;19929;-71
2020/12/06 04:15:21;;;;;;;;;;;;;;;1.20;87.87;98723.50;5028824;28;19925;-71
2020/12/06 04:17:48;;;;;;;;;;;;;;;1.02;88.03;98715.09;4998815;28;19932;-70
2020/12/06 04:20:14;;;;;;;;;;;;;;;0.90;88.47;98717.44;5031673;28;19987;-70
2020/12/06 04:22:40;;;;;;;;;;;;;;;0.80;89.56;98734.84;5032534;28;20390;-70
2020/12/06 04:25:06;;;;;;;;;;;;;;;0.75;89.61;98748.00;5031481;28;20415;-70
2020/12/06 04:27:33;;;;;;;;;;;;;;;0.71;89.95;98742.19;5015137;28;20056;-71
2020/12/06 04:29:59;;;;;;;;;;;;;;;0.72;90.60;98727.75;5034073;28;19945;-70
2020/12/06 04:32:26;;;;;;;;;;;;;;;0.76;90.53;98729.03;5040397;28;20016;-71
2020/12/06 04:34:52;;;;;;;;;;;;;;;0.78;90.52;98723.50;5015076;28;20421;-70
2020/12/06 04:37:18;;;;;;;;;;;;;;;0.94;89.81;98715.22;5030864;28;19925;-70
2020/12/06 04:39:45;;;;;;;;;;;;;;;0.92;90.13;98733.34;4994849;28;19925;-71
2020/12/06 04:42:11;;;;;;;;;;;;;;;0.97;89.92;98741.66;5023586;28;19925;-70
2020/12/06 04:44:37;;;;;;;;;;;;;;;0.92;90.11;98742.22;5031257;28;20003;-70
2020/12/06 04:47:04;;;;;;;;;;;;;;;0.91;89.74;98731.69;5022984;28;20020;-70
2020/12/06 04:49:44;;;;;;;;;;;;;;;0.85;89.79;98730.59;5030948;28;19925;-70
2020/12/06 04:52:21;;;;;;;;;;;;;;;0.80;89.31;98730.31;5032492;28;19925;-71
2020/12/06 04:54:49;;;;;;;;;;;;;;;0.88;89.99;98724.00;5031211;28;20023;-70
2020/12/06 04:57:15;;;;;;;;;;;;;;;0.89;89.85;98715.78;5031093;28;20465;-71
2020/12/06 04:59:42;;;;;;;;;;;;;;;0.93;89.69;98718.91;5014445;28;19929;-71
2020/12/06 05:02:09;;;;;;;;;;;;;;;0.92;89.86;98722.63;5030877;28;19969;-70
2020/12/06 05:04:36;;;;;;;;;;;;;;;0.88;90.30;98729.38;5030613;28;19983;-70
2020/12/06 05:07:03;;;;;;;;;;;;;;;0.83;90.18;98724.59;5030460;28;19929;-70
2020/12/06 05:09:31;;;;;;;;;;;;;;;0.74;90.65;98731.06;5031222;28;19972;-70
2020/12/06 05:11:58;;;;;;;;;;;;;;;0.66;90.55;98729.38;4995469;28;19926;-70
2020/12/06 05:14:24;;;;;;;;;;;;;;;0.66;90.60;98713.28;5016567;28;20395;-70
2020/12/06 05:16:50;;;;;;;;;;;;;;;0.71;90.68;98715.38;5020223;28;20307;-70
2020/12/06 05:19:16;;;;;;;;;;;;;;;0.75;90.22;98729.22;5040092;28;19925;-71
2020/12/06 05:21:44;;;;;;;;;;;;;;;0.74;90.95;98730.25;5034173;28;19948;-70
2020/12/06 05:24:12;;;;;;;;;;;;;;;0.66;90.57;98729.38;5030657;28;20300;-71
2020/12/06 05:26:38;;;;;;;;;;;;;;;0.66;91.20;98729.38;5031497;28;20008;-70
2020/12/06 05:29:04;;;;;;;;;;;;;;;0.64;91.23;98722.53;5030448;28;19925;-71
2020/12/06 05:31:30;;;;;;;;;;;;;;;0.65;91.12;98722.34;5030443;28;19932;-70
2020/12/06 05:33:57;;;;;;;;;;;;;;;0.70;90.30;98716.38;5030452;28;20387;-71
2020/12/06 05:36:23;;;;;;;;;;;;;;;0.72;89.85;98710.84;5013655;28;19925;-71
2020/12/06 05:38:50;;;;;;;;;;;;;;;0.79;90.22;98711.75;5013926;28;19933;-71
2020/12/06 05:41:16;;;;;;;;;;;;;;;0.82;90.21;98698.78;5013738;28;19925;-71
2020/12/06 05:43:42;;;;;;;;;;;;;;;0.84;89.24;98698.59;5030172;28;20337;-71
2020/12/06 05:46:09;;;;;;;;;;;;;;;0.86;89.50;98692.03;4994115;28;19925;-70
2020/12/06 05:48:35;;;;;;;;;;;;;;;1.00;89.36;98699.19;5021941;28;20386;-70
2020/12/06 05:51:02;;;;;;;;;;;;;;;1.17;88.66;98698.91;5028927;28;19972;-71
2020/12/06 05:53:28;;;;;;;;;;;;;;;1.14;89.16;98677.81;5013620;28;19925;-70
2020/12/06 05:55:56;;;;;;;;;;;;;;;1.17;89.65;98675.59;5013801;28;19948;-71
2020/12/06 05:58:23;;;;;;;;;;;;;;;1.27;88.84;98672.56;5029978;28;19929;-70
2020/12/06 06:00:49;;;;;;;;;;;;;;;1.38;89.22;98680.09;5026935;28;19936;-71
2020/12/06 06:03:18;;;;;;;;;;;;;;;1.40;88.87;98677.19;5037140;28;19956;-71
2020/12/06 06:05:44;;;;;;;;;;;;;;;1.46;88.76;98679.09;4997212;28;19975;-70
2020/12/06 06:08:10;;;;;;;;;;;;;;;1.43;88.79;98685.69;4996629;28;20375;-71
2020/12/06 06:10:36;;;;;;;;;;;;;;;1.49;88.80;98692.97;5029872;28;20398;-71
2020/12/06 06:13:03;;;;;;;;;;;;;;;1.50;88.74;98693.78;5029857;28;19933;-71
2020/12/06 06:15:30;;;;;;;;;;;;;;;1.48;88.74;98711.94;4993095;28;19925;-71
2020/12/06 06:17:56;;;;;;;;;;;;;;;1.55;88.35;98696.72;5006730;28;19952;-70
2020/12/06 06:20:22;;;;;;;;;;;;;;;1.78;87.57;98694.59;5029520;28;19925;-71
2020/12/06 06:22:49;;;;;;;;;;;;;;;1.80;87.43;98699.78;5012819;28;19925;-71
2020/12/06 06:25:15;;;;;;;;;;;;;;;1.87;86.92;98704.16;5029385;28;20052;-70
2020/12/06 06:27:41;;;;;;;;;;;;;;;1.59;88.25;98711.41;5012669;28;20062;-71
2020/12/06 06:30:08;;;;;;;;;;;;;;;1.55;88.28;98723.56;5013321;28;20375;-71
2020/12/06 06:32:35;;;;;;;;;;;;;;;1.46;88.76;98727.41;5029881;28;19976;-71
2020/12/06 06:35:02;;;;;;;;;;;;;;;1.45;89.22;98715.03;5012699;28;19925;-71
2020/12/06 06:37:29;;;;;;;;;;;;;;;1.38;89.50;98711.47;5030495;28;19931;-71
2020/12/06 06:40:06;;;;;;;;;;;;;;;1.31;89.79;98711.41;5028851;28;19979;-71
2020/12/06 06:42:34;;;;;;;;;;;;;;;1.41;89.60;98716.44;5030486;28;20486;-71
2020/12/06 06:45:03;;;;;;;;;;;;;;;1.41;88.90;98717.25;5036137;28;19948;-71
2020/12/06 06:47:29;;;;;;;;;;;;;;;1.22;89.45;98736.72;5013949;28;19929;-71
2020/12/06 06:49:56;;;;;;;;;;;;;;;1.46;87.45;98740.84;5041450;28;19926;-71
2020/12/06 06:52:23;;;;;;;;;;;;;;;1.47;86.34;98754.06;4993280;28;19930;-71
2020/12/06 06:54:50;;;;;;;;;;;;;;;1.36;86.72;98761.81;5014966;28;19929;-71
2020/12/06 06:57:16;;;;;;;;;;;;;;;1.14;87.94;98753.78;5012560;28;19932;-71
2020/12/06 06:59:46;;;;;;;;;;;;;;;1.12;87.92;98749.63;5028960;28;19925;-71
2020/12/06 07:02:19;;;;;;;;;;;;;;;1.05;88.61;98743.34;5014095;28;19933;-71
2020/12/06 07:04:45;;;;;;;;;;;;;;;0.99;88.51;98747.66;5033613;28;19925;-70
2020/12/06 07:07:12;;;;;;;;;;;;;;;1.04;87.67;98747.09;5032308;28;20294;-70
2020/12/06 07:09:38;;;;;;;;;;;;;;;1.06;87.96;98759.25;5016426;28;19954;-71
2020/12/06 07:12:04;;;;;;;;;;;;;;;1.01;87.49;98769.75;5015917;28;19925;-70
2020/12/06 07:14:30;;;;;;;;;;;;;;;0.92;87.47;98757.47;5015984;28;19925;-71
2020/12/06 07:16:57;;;;;;;;;;;;;;;1.00;88.05;98743.94;5029008;28;19929;-70
2020/12/06 07:19:24;;;;;;;;;;;;;;;1.07;87.34;98741.31;5032699;28;19926;-69
2020/12/06 07:21:51;;;;;;;;;;;;;;;1.07;87.72;98725.22;5032425;28;19951;-70
2020/12/06 07:24:17;;;;;;;;;;;;;;;1.17;87.44;98739.97;5033103;28;20379;-71
2020/12/06 07:26:44;;;;;;;;;;;;;;;1.26;87.15;98744.19;5033937;28;19925;-71
2020/12/06 07:29:11;;;;;;;;;;;;;;;1.27;87.36;98756.59;5010406;28;19929;-71
2020/12/06 07:31:37;;;;;;;;;;;;;;;1.33;86.91;98758.50;5020761;28;19925;-70
2020/12/06 07:34:04;;;;;;;;;;;;;;;1.44;87.12;98759.81;5033421;28;19925;-71
2020/12/06 07:36:34;;;;;;;;;;;;;;;1.56;86.46;98744.03;5016312;28;20015;-71
2020/12/06 07:39:00;;;;;;;;;;;;;;;1.64;86.01;98750.09;4996745;28;19961;-71
2020/12/06 07:41:27;;;;;;;;;;;;;;;1.79;85.17;98747.28;5029101;28;19933;-70
2020/12/06 07:43:53;;;;;;;;;;;;;;;1.76;85.62;98746.84;5015295;28;19925;-71
2020/12/06 07:46:20;;;;;;;;;;;;;;;1.89;85.21;98755.81;5031595;28;19929;-71
2020/12/06 07:48:55;;;;;;;;;;;;;;;2.03;84.63;98750.56;5015680;28;19983;-71
2020/12/06 07:51:26;;;;;;;;;;;;;;;2.10;84.43;98746.84;5029490;28;20016;-71
2020/12/06 07:53:52;;;;;;;;;;;;;;;2.25;83.71;98744.06;5016058;28;19951;-70
2020/12/06 07:56:22;;;;;;;;;;;;;;;2.38;82.98;98746.81;5032000;28;19960;-70
2020/12/06 07:59:00;;;;;;;;;;;;;;;2.43;82.56;98747.03;5031590;28;19940;-71
2020/12/06 08:01:26;;;;;;;;;;;;;;;2.58;81.79;98758.47;5031733;28;20390;-70
2020/12/06 08:03:54;;;;;;;;;;;;;;;2.71;81.29;98746.13;5032315;28;19925;-71
2020/12/06 08:06:20;;;;;;;;;;;;;;;2.96;80.40;98752.59;5031621;28;19932;-71
2020/12/06 08:08:48;;;;;;;;;;;;;;;3.23;79.34;98737.31;5011899;28;19925;-71
2020/12/06 08:11:15;;;;;;;;;;;;;;;3.80;77.75;98742.09;5032621;28;19925;-71
2020/12/06 08:13:41;;;;;;;;;;;;;;;4.78;73.92;98739.31;5041307;28;19941;-71
2020/12/06 08:16:09;;;;;;;;;;;;;;;5.39;71.58;98731.47;5002889;28;19935;-71
2020/12/06 08:18:35;;;;;;;;;;;;;;;5.98;68.85;98730.97;5025971;28;20454;-72
2020/12/06 08:21:01;;;;;;;;;;;;;;;6.22;67.26;98731.16;5015332;28;19925;-71
2020/12/06 08:23:31;;;;;;;;;;;;;;;6.83;65.15;98722.09;5017502;28;19925;-71
2020/12/06 08:25:59;;;;;;;;;;;;;;;7.00;64.68;98706.84;5015639;28;19936;-71
2020/12/06 08:28:25;;;;;;;;;;;;;;;7.37;63.14;98718.38;5031279;28;20016;-71
2020/12/06 08:30:53;;;;;;;;;;;;;;;8.02;60.87;98716.44;4996360;28;19935;-70
2020/12/06 08:33:26;;;;;;;;;;;;;;;8.18;60.58;98692.38;5031824;28;19929;-70
2020/12/06 08:35:56;;;;;;;;;;;;;;;8.46;59.46;98683.50;4999134;28;19963;-70
2020/12/06 08:38:26;;;;;;;;;;;;;;;8.56;59.01;98667.41;5031703;28;19932;-69
2020/12/06 08:40:58;;;;;;;;;;;;;;;8.85;58.73;98670.97;5031427;28;20012;-70
2020/12/06 08:43:38;;;;;;;;;;;;;;;9.44;56.42;98664.13;5031555;28;19948;-70
2020/12/06 08:46:08;;;;;;;;;;;;;;;10.19;55.21;98666.38;5023545;28;19926;-70
2020/12/06 08:48:34;;;;;;;;;;;;;;;10.39;53.05;98654.97;5033146;28;20024;-70
2020/12/06 08:51:03;;;;;;;;;;;;;;;10.00;54.07;98645.97;5008530;28;19925;-70
2020/12/06 08:53:43;;;;;;;;;;;;;;;10.06;53.85;98643.03;5015246;28;19929;-71
2020/12/06 08:56:28;;;;;;;;;;;;;;;9.08;56.84;98633.63;5031296;28;20018;-70
2020/12/06 08:58:55;;;;;;;;;;;;;;;8.68;57.93;98633.72;5030920;28;20354;-70
2020/12/06 09:01:22;;;;;;;;;;;;;;;8.50;58.58;98625.78;4998838;28;19925;-70
2020/12/06 09:03:48;;;;;;;;;;;;;;;8.38;59.13;98623.09;5031181;28;20335;-70
2020/12/06 09:06:15;;;;;;;;;;;;;;;8.28;59.56;98635.63;5064736;23;20433;-70
2020/12/06 09:08:41;;;;;;;;;;;;;;;8.15;60.31;98639.41;5092981;28;19931;-69
2020/12/06 09:11:17;;;;;;;;;;;;;;;8.14;60.39;98632.34;5073847;28;20037;-70
2020/12/06 09:13:44;;;;;;;;;;;;;;;7.47;62.35;98625.66;5076271;28;19924;-69
2020/12/06 09:16:10;;;;;;;;;;;;;;;6.76;65.69;98623.91;5056693;28;20027;-70
2020/12/06 09:18:37;;;;;;;;;;;;;;;6.52;66.77;98637.34;5073006;28;19929;-70
2020/12/06 09:21:03;;;;;;;;;;;;;;;6.42;67.45;98639.75;5071047;28;20501;-69
2020/12/06 09:23:29;;;;;;;;;;;;;;;5.98;68.87;98641.75;5073434;28;20125;-70
2020/12/06 09:25:58;;;;;;;;;;;;;;;5.78;70.68;98646.53;5073860;28;19951;-69
2020/12/06 09:28:24;;;;;;;;;;;;;;;5.97;69.61;98659.00;5054576;28;19970;-69
2020/12/06 09:30:50;;;;;;;;;;;;;;;6.20;69.12;98662.94;5055044;28;19928;-69
2020/12/06 09:33:16;;;;;;;;;;;;;;;6.32;68.70;98653.00;5070496;28;19924;-69
2020/12/06 09:35:42;;;;;;;;;;;;;;;6.02;70.00;98656.47;5034069;28;19931;-69
2020/12/06 09:38:09;;;;;;;;;;;;;;;6.01;70.31;98659.41;5062361;28;19964;-69
2020/12/06 09:40:35;;;;;;;;;;;;;;;5.94;70.46;98656.75;5070384;28;19924;-70
2020/12/06 09:43:01;;;;;;;;;;;;;;;5.69;71.66;98651.38;5087779;28;19943;-69
2020/12/06 09:45:28;;;;;;;;;;;;;;;5.90;71.07;98669.06;5070410;28;19947;-69
2020/12/06 09:47:56;;;;;;;;;;;;;;;6.01;70.87;98668.34;5069069;28;19932;-68
2020/12/06 09:50:22;;;;;;;;;;;;;;;5.92;70.42;98663.44;5070687;28;19928;-68
2020/12/06 09:52:49;;;;;;;;;;;;;;;5.81;71.65;98666.88;5054287;28;19924;-68
2020/12/06 09:55:22;;;;;;;;;;;;;;;5.60;72.52;98668.09;5069955;28;20023;-68
2020/12/06 09:57:48;;;;;;;;;;;;;;;5.56;73.16;98659.59;5070852;28;19967;-68
2020/12/06 10:00:14;;;;;;;;;;;;;;;5.88;72.75;98679.28;5053658;28;19947;-68
2020/12/06 10:02:41;;;;;;;;;;;;;;;6.07;72.27;98660.38;5056028;28;19940;-68
2020/12/06 10:05:07;;;;;;;;;;;;;;;5.89;72.69;98663.91;5076128;28;20015;-68
2020/12/06 10:07:33;;;;;;;;;;;;;;;5.79;73.50;98642.75;5054580;28;19925;-68
2020/12/06 10:10:00;;;;;;;;;;;;;;;5.71;73.89;98640.34;5054196;28;19924;-68
2020/12/06 10:12:26;;;;;;;;;;;;;;;5.71;74.37;98648.47;5088806;28;19924;-69
2020/12/06 10:14:52;;;;;;;;;;;;;;;5.86;74.00;98643.53;5054234;28;20398;-68
2020/12/06 10:17:18;;;;;;;;;;;;;;;5.80;74.52;98651.69;5054407;28;19948;-69
2020/12/06 10:19:44;;;;;;;;;;;;;;;5.69;74.88;98643.28;5064742;28;19929;-68
2020/12/06 10:22:11;;;;;;;;;;;;;;;5.75;74.96;98665.06;5051286;28;20019;-69
2020/12/06 10:24:37;;;;;;;;;;;;;;;5.79;74.42;98667.09;5060984;28;20341;-68
2020/12/06 10:27:03;;;;;;;;;;;;;;;5.84;74.45;98688.88;5020002;28;20368;-68
2020/12/06 10:29:29;;;;;;;;;;;;;;;6.00;73.96;98679.38;5069815;28;20015;-68
2020/12/06 10:31:58;;;;;;;;;;;;;;;5.80;75.36;98671.44;5070930;28;19928;-68
2020/12/06 10:34:26;;;;;;;;;;;;;;;5.92;74.40;98672.38;5017695;28;19932;-68
2020/12/06 10:36:53;;;;;;;;;;;;;;;5.74;75.30;98669.63;5054607;28;19932;-68
2020/12/06 10:39:22;;;;;;;;;;;;;;;5.68;75.86;98662.41;5057481;28;19932;-68
2020/12/06 10:41:49;;;;;;;;;;;;;;;5.77;74.64;98652.97;5073429;28;19924;-69
2020/12/06 10:44:15;;;;;;;;;;;;;;;5.66;74.77;98653.69;5057080;28;19972;-68
2020/12/06 10:46:42;;;;;;;;;;;;;;;5.68;75.54;98654.31;5068843;28;19928;-68
2020/12/06 10:49:09;;;;;;;;;;;;;;;5.74;75.04;98653.41;5056879;28;20408;-69
2020/12/06 10:51:37;;;;;;;;;;;;;;;5.86;74.65;98651.63;5073443;28;20305;-69
2020/12/06 10:54:03;;;;;;;;;;;;;;;5.88;74.06;98649.53;5056857;28;19950;-69
2020/12/06 10:56:29;;;;;;;;;;;;;;;6.11;73.36;98658.88;5074588;28;20370;-68
2020/12/06 10:58:56;;;;;;;;;;;;;;;6.29;73.11;98651.56;5072342;28;19947;-68
2020/12/06 11:01:29;;;;;;;;;;;;;;;6.57;71.90;98661.03;5073039;28;19982;-69
2020/12/06 11:03:55;;;;;;;;;;;;;;;6.68;71.25;98658.34;5074450;28;19939;-68
2020/12/06 11:06:22;;;;;;;;;;;;;;;6.84;70.83;98656.06;5036472;28;19979;-68
2020/12/06 11:08:48;;;;;;;;;;;;;;;6.56;71.42;98648.53;5055891;28;19964;-68
2020/12/06 11:11:15;;;;;;;;;;;;;;;6.56;71.52;98651.25;5056480;28;19924;-68
2020/12/06 11:13:41;;;;;;;;;;;;;;;6.68;71.35;98652.09;5056660;28;19971;-68
2020/12/06 11:16:09;;;;;;;;;;;;;;;6.64;71.87;98648.19;5070118;28;19974;-69
2020/12/06 11:18:35;;;;;;;;;;;;;;;6.68;71.67;98642.09;5072722;28;19924;-68
2020/12/06 11:21:02;;;;;;;;;;;;;;;6.39;72.80;98653.75;5056137;28;19935;-68
2020/12/06 11:23:28;;;;;;;;;;;;;;;6.46;72.59;98651.78;5039556;28;19925;-68
2020/12/06 11:25:55;;;;;;;;;;;;;;;6.34;72.78;98635.47;5051425;28;19929;-68
2020/12/06 11:28:22;;;;;;;;;;;;;;;6.31;72.93;98633.22;5052281;28;19972;-68
2020/12/06 11:30:48;;;;;;;;;;;;;;;6.50;72.57;98631.34;5060634;28;19952;-68
2020/12/06 11:33:14;;;;;;;;;;;;;;;6.48;72.80;98633.44;5037140;28;19928;-68
2020/12/06 11:35:42;;;;;;;;;;;;;;;6.25;72.90;98627.91;5072190;28;19931;-68
2020/12/06 11:38:09;;;;;;;;;;;;;;;6.12;73.90;98615.38;5055902;28;19990;-68
2020/12/06 11:40:35;;;;;;;;;;;;;;;6.12;74.26;98595.63;5055291;28;20020;-68
2020/12/06 11:43:02;;;;;;;;;;;;;;;6.10;74.29;98586.91;5038808;28;19994;-68
2020/12/06 11:45:28;;;;;;;;;;;;;;;5.99;74.93;98588.50;5068478;28;19924;-68
2020/12/06 11:47:54;;;;;;;;;;;;;;;6.00;75.37;98593.69;5071937;28;19936;-68
2020/12/06 11:50:20;;;;;;;;;;;;;;;5.91;76.03;98588.78;5071693;28;19928;-68
2020/12/06 11:52:47;;;;;;;;;;;;;;;5.85;76.05;98590.50;5055423;28;20390;-68
2020/12/06 11:55:13;;;;;;;;;;;;;;;5.88;76.19;98581.13;5038881;28;19978;-68
2020/12/06 11:57:39;;;;;;;;;;;;;;;6.07;75.33;98590.06;5073112;28;19996;-68
2020/12/06 12:00:06;;;;;;;;;;;;;;;6.19;74.68;98580.16;5089081;28;19947;-68
2020/12/06 12:02:38;;;;;;;;;;;;;;;6.41;74.22;98572.34;5072255;28;19964;-68
2020/12/06 12:05:04;;;;;;;;;;;;;;;6.51;73.84;98559.09;5073347;28;20023;-68
2020/12/06 12:07:31;;;;;;;;;;;;;;;6.69;73.01;98569.84;5034901;28;19936;-68
2020/12/06 12:09:57;;;;;;;;;;;;;;;6.76;72.42;98553.50;5069609;28;19924;-68
2020/12/06 12:12:23;;;;;;;;;;;;;;;6.66;73.25;98560.31;5056112;28;20007;-68
2020/12/06 12:14:50;;;;;;;;;;;;;;;6.70;72.74;98566.09;5056004;28;19978;-68
2020/12/06 12:17:16;;;;;;;;;;;;;;;6.96;72.07;98581.91;5071169;28;19931;-68
2020/12/06 12:19:43;;;;;;;;;;;;;;;7.04;71.89;98575.31;5073170;28;19947;-69
2020/12/06 12:22:09;;;;;;;;;;;;;;;7.05;71.90;98580.50;5055724;28;19967;-69
2020/12/06 12:24:35;;;;;;;;;;;;;;;6.88;72.56;98582.28;5072288;28;19924;-69
2020/12/06 12:27:02;;;;;;;;;;;;;;;6.81;73.39;98578.00;5074790;28;20031;-69
2020/12/06 12:29:28;;;;;;;;;;;;;;;6.76;73.79;98586.00;5036381;28;20444;-69
2020/12/06 12:31:56;;;;;;;;;;;;;;;6.80;73.62;98582.59;5061686;28;19990;-69
2020/12/06 12:34:22;;;;;;;;;;;;;;;6.85;73.18;98581.91;5062448;28;20482;-70
2020/12/06 12:36:48;;;;;;;;;;;;;;;6.88;73.96;98584.16;5085591;28;19956;-69
2020/12/06 12:39:15;;;;;;;;;;;;;;;6.74;74.16;98580.81;5061582;28;19932;-69
2020/12/06 12:41:41;;;;;;;;;;;;;;;6.55;74.54;98582.78;5071619;28;20342;-69
2020/12/06 12:44:08;;;;;;;;;;;;;;;6.50;75.15;98589.91;5071049;28;19924;-69
2020/12/06 12:46:35;;;;;;;;;;;;;;;6.50;74.84;98593.47;5020005;28;19924;-69
2020/12/06 12:49:02;;;;;;;;;;;;;;;6.39;75.74;98580.69;5054395;28;19924;-70
2020/12/06 12:51:29;;;;;;;;;;;;;;;6.32;75.54;98585.38;5069198;28;19924;-70
2020/12/06 12:53:57;;;;;;;;;;;;;;;6.21;76.17;98594.28;5076431;28;19924;-70
2020/12/06 12:56:25;;;;;;;;;;;;;;;6.10;76.20;98584.22;5089804;28;19909;-70